Terminal Aerodrome Forecast
Issued by NWS

Home | Current Version | Previous Version | Text Only | Print | Product List | Glossary On
Versions: 1 2 3 4 5 6 7 8 9 10 11 12 13 14 15 16
000
FTAK31 PANC 281551 AAA
TAFADQ
TAF AMD
PADQ 281551Z 2816/0112 30015G25KT P6SM FEW045
     FM010600 32018G28KT P6SM FEW045=

USA.gov is the U.S. government's official web portal to all federal, state and local government web resources and services.